createdAt,value
2022-09-07T00:01:36.519Z,18.60
2022-09-07T00:03:38.310Z,18.60
2022-09-07T00:05:43.920Z,18.60
2022-09-07T00:07:52.482Z,18.50
2022-09-07T00:09:54.116Z,18.50
2022-09-07T00:11:55.755Z,18.50
2022-09-07T00:13:57.497Z,18.60
2022-09-07T00:15:59.284Z,18.60
2022-09-07T00:18:00.997Z,18.70
2022-09-07T00:20:03.253Z,18.70
2022-09-07T00:22:05.051Z,18.70
2022-09-07T00:24:06.774Z,18.70
2022-09-07T00:26:10.180Z,18.70
2022-09-07T00:28:11.873Z,18.50
2022-09-07T00:30:13.721Z,18.60
2022-09-07T00:32:15.970Z,18.60
2022-09-07T00:34:17.597Z,18.60
2022-09-07T00:36:19.707Z,18.60
2022-09-07T00:38:21.361Z,18.60
2022-09-07T00:40:23.061Z,18.60
2022-09-07T00:42:24.702Z,18.70
2022-09-07T00:44:45.381Z,18.60
2022-09-07T00:46:47.219Z,18.60
2022-09-07T00:48:48.924Z,18.60
2022-09-07T00:50:52.778Z,18.50
2022-09-07T00:52:58.181Z,18.60
2022-09-07T00:55:01.862Z,18.60
2022-09-07T00:57:04.008Z,18.50
2022-09-07T00:59:06.178Z,18.50
2022-09-07T01:01:08.535Z,18.50
2022-09-07T01:03:10.491Z,18.50
2022-09-07T01:05:34.856Z,18.40
2022-09-07T01:07:36.842Z,18.30
2022-09-07T01:09:39.309Z,18.30
2022-09-07T01:11:41.421Z,18.30
2022-09-07T01:13:44.159Z,18.30
2022-09-07T01:15:48.831Z,18.30
2022-09-07T01:18:01.761Z,18.30
2022-09-07T01:20:09.219Z,18.30
2022-09-07T01:22:29.418Z,18.30
2022-09-07T01:24:31.100Z,18.30
2022-09-07T01:26:32.744Z,18.20
2022-09-07T01:28:35.138Z,18.20
2022-09-07T01:30:38.038Z,18.30
2022-09-07T01:32:39.695Z,18.30
2022-09-07T01:34:43.374Z,18.30
2022-09-07T01:36:50.487Z,18.30
2022-09-07T01:38:56.711Z,18.30
2022-09-07T01:40:58.386Z,18.30
2022-09-07T01:43:12.636Z,18.30
2022-09-07T01:45:16.356Z,18.20
2022-09-07T01:47:32.645Z,18.20
2022-09-07T01:49:42.537Z,18.20
2022-09-07T01:51:46.004Z,18.20
2022-09-07T01:53:50.661Z,18.20
2022-09-07T01:55:52.266Z,18.30
2022-09-07T01:57:56.582Z,18.30
2022-09-07T02:00:04.928Z,18.30
2022-09-07T02:02:12.667Z,18.30
2022-09-07T02:04:19.948Z,18.30
2022-09-07T02:06:24.690Z,18.30
2022-09-07T02:08:37.110Z,18.30
2022-09-07T02:10:40.927Z,18.20
2022-09-07T02:12:47.295Z,18.20
2022-09-07T02:14:52.771Z,18.30
2022-09-07T02:17:18.602Z,18.30
2022-09-07T02:19:20.805Z,18.30
2022-09-07T02:21:26.249Z,18.30
2022-09-07T02:23:30.427Z,18.30
2022-09-07T02:25:47.173Z,18.30
2022-09-07T02:27:55.172Z,18.30
2022-09-07T02:29:56.875Z,18.30
2022-09-07T02:31:58.751Z,18.40
2022-09-07T02:34:01.933Z,18.40
2022-09-07T02:36:04.509Z,18.30
2022-09-07T02:38:06.714Z,18.30
2022-09-07T02:40:08.964Z,18.20
2022-09-07T02:42:10.618Z,18.30
2022-09-07T02:44:23.107Z,18.40
2022-09-07T02:46:30.989Z,18.40
2022-09-07T02:48:35.679Z,18.40
2022-09-07T02:50:37.425Z,18.40
2022-09-07T02:52:57.721Z,18.40
2022-09-07T02:55:08.699Z,18.50
2022-09-07T02:57:13.337Z,18.40
2022-09-07T02:59:33.385Z,18.40
2022-09-07T03:01:42.970Z,18.40
2022-09-07T03:03:54.499Z,18.30
2022-09-07T03:05:59.344Z,18.30
2022-09-07T03:08:04.116Z,18.30
2022-09-07T03:10:06.674Z,18.30
2022-09-07T03:12:08.573Z,18.30
2022-09-07T03:14:20.638Z,18.30
2022-09-07T03:16:22.350Z,18.20
2022-09-07T03:18:24.757Z,18.10
2022-09-07T03:20:26.518Z,18.10
2022-09-07T03:22:28.470Z,18.10
2022-09-07T03:24:30.109Z,18.20
2022-09-07T03:26:31.784Z,18.20
2022-09-07T03:28:33.424Z,18.20
2022-09-07T03:30:35.171Z,18.30
2022-09-07T03:32:37.441Z,18.30
2022-09-07T03:34:39.082Z,18.30
2022-09-07T03:36:40.754Z,18.10
2022-09-07T03:38:42.355Z,18.10
2022-09-07T03:40:44.024Z,18.20
2022-09-07T03:42:50.518Z,18.00
2022-09-07T03:44:52.263Z,18.10
2022-09-07T03:46:53.888Z,18.00
2022-09-07T03:48:55.578Z,17.90
2022-09-07T03:51:16.251Z,17.80
2022-09-07T03:53:17.854Z,17.80
2022-09-07T03:55:19.483Z,17.70
2022-09-07T03:57:21.171Z,17.80
2022-09-07T03:59:22.813Z,17.80
2022-09-07T04:01:25.814Z,17.80
2022-09-07T04:03:27.509Z,17.80
2022-09-07T04:05:29.168Z,17.60
2022-09-07T04:07:30.811Z,17.50
2022-09-07T04:09:32.737Z,17.50
2022-09-07T04:11:35.022Z,17.60
2022-09-07T04:13:36.694Z,17.60
2022-09-07T04:15:38.394Z,17.60
2022-09-07T04:17:40.061Z,17.60
2022-09-07T04:19:41.769Z,17.60
2022-09-07T04:21:44.544Z,17.60
2022-09-07T04:23:46.503Z,17.60
2022-09-07T04:25:51.728Z,17.70
2022-09-07T04:27:53.381Z,17.60
2022-09-07T04:29:55.034Z,17.60
2022-09-07T04:31:56.682Z,17.60
2022-09-07T04:33:58.423Z,17.60
2022-09-07T04:36:03.844Z,17.70
2022-09-07T04:38:06.448Z,17.70
2022-09-07T04:40:08.693Z,17.70
2022-09-07T04:42:10.407Z,17.70
2022-09-07T04:44:16.659Z,17.60
2022-09-07T04:46:23.052Z,17.40
2022-09-07T04:48:24.810Z,17.40
2022-09-07T04:50:26.495Z,17.50
2022-09-07T04:52:28.188Z,17.60
2022-09-07T04:54:29.852Z,17.60
2022-09-07T04:56:32.209Z,17.50
2022-09-07T04:58:33.832Z,17.50
2022-09-07T05:00:35.779Z,17.50
2022-09-07T05:02:38.155Z,17.50
2022-09-07T05:04:39.974Z,17.50
2022-09-07T05:06:41.594Z,17.50
2022-09-07T05:08:44.845Z,17.50
2022-09-07T05:10:53.105Z,17.50
2022-09-07T05:12:57.785Z,17.50
2022-09-07T05:14:59.437Z,17.40
2022-09-07T05:17:01.252Z,17.30
2022-09-07T05:19:03.945Z,17.30
2022-09-07T05:21:15.690Z,17.30
2022-09-07T05:23:17.424Z,17.40
2022-09-07T05:25:19.063Z,17.30
2022-09-07T05:27:20.733Z,17.30
2022-09-07T05:31:44.877Z,17.30
2022-09-07T05:36:15.617Z,17.50
2022-09-07T05:38:17.241Z,17.50
2022-09-07T05:40:19.172Z,17.60
2022-09-07T05:42:20.814Z,17.60
2022-09-07T05:46:44.846Z,17.60
2022-09-07T05:48:47.570Z,17.60
2022-09-07T05:50:50.052Z,17.70
2022-09-07T05:52:51.708Z,17.80
2022-09-07T05:54:59.259Z,17.80
2022-09-07T05:57:10.586Z,17.90
2022-09-07T05:59:12.233Z,17.90
2022-09-07T06:01:14.125Z,17.90
2022-09-07T06:03:15.912Z,17.90
2022-09-07T06:05:17.686Z,17.90
2022-09-07T06:07:23.374Z,18.00
2022-09-07T06:09:29.824Z,18.00
2022-09-07T06:11:32.228Z,17.90
2022-09-07T06:13:33.957Z,18.00
2022-09-07T06:15:35.590Z,18.00
2022-09-07T06:17:37.297Z,18.00
2022-09-07T06:19:38.907Z,18.00
2022-09-07T06:21:40.585Z,17.90
2022-09-07T06:23:42.748Z,18.00
2022-09-07T06:25:47.955Z,18.00
2022-09-07T06:27:49.899Z,18.10
2022-09-07T06:29:51.540Z,18.20
2022-09-07T06:34:14.917Z,18.20
2022-09-07T06:36:16.537Z,18.30
2022-09-07T06:38:18.617Z,18.40
2022-09-07T06:40:20.426Z,18.50
2022-09-07T06:42:22.114Z,18.60
2022-09-07T06:44:23.759Z,18.70
2022-09-07T06:48:47.602Z,18.90
2022-09-07T06:50:56.153Z,19.00
2022-09-07T06:55:19.483Z,19.20
2022-09-07T06:57:21.120Z,19.40
2022-09-07T06:59:22.780Z,19.50
2022-09-07T07:01:25.031Z,19.60
2022-09-07T07:03:28.323Z,19.70
2022-09-07T07:05:31.683Z,19.70
2022-09-07T07:07:34.162Z,19.70
2022-09-07T07:09:35.799Z,19.60
2022-09-07T07:11:37.648Z,19.60
2022-09-07T07:13:40.029Z,19.50
2022-09-07T07:15:41.790Z,19.40
2022-09-07T07:17:43.862Z,19.40
2022-09-07T07:19:45.681Z,19.30
2022-09-07T07:24:09.061Z,19.30
2022-09-07T07:26:13.059Z,19.30
2022-09-07T07:30:36.516Z,19.40
2022-09-07T07:32:38.348Z,19.50
2022-09-07T07:34:40.069Z,19.50
2022-09-07T07:36:41.701Z,19.70
2022-09-07T07:39:00.901Z,19.70
2022-09-07T07:43:32.807Z,19.70
2022-09-07T07:47:56.421Z,19.90
2022-09-07T07:54:41.477Z,20.00
2022-09-07T07:56:43.102Z,20.00
2022-09-07T07:58:47.372Z,20.10
2022-09-07T08:00:56.651Z,20.10
2022-09-07T08:02:58.671Z,20.20
2022-09-07T08:05:01.021Z,20.30
2022-09-07T08:07:08.710Z,20.30
2022-09-07T08:09:12.053Z,20.50
2022-09-07T08:11:16.875Z,20.60
2022-09-07T08:13:19.201Z,20.60
2022-09-07T08:15:20.982Z,20.60
2022-09-07T08:17:24.141Z,20.60
2022-09-07T08:19:25.766Z,20.80
2022-09-07T08:21:27.343Z,20.90
2022-09-07T08:23:29.058Z,21.00
2022-09-07T08:25:30.697Z,21.10
2022-09-07T08:27:32.547Z,21.10
2022-09-07T08:29:35.435Z,21.10
2022-09-07T08:31:38.290Z,21.20
2022-09-07T08:33:40.045Z,21.40
2022-09-07T08:35:41.719Z,21.50
2022-09-07T08:37:43.388Z,21.50
2022-09-07T08:39:46.108Z,21.40
2022-09-07T08:42:07.217Z,21.60
2022-09-07T08:44:23.890Z,22.00
2022-09-07T08:46:46.718Z,21.90
2022-09-07T08:48:48.757Z,22.30
2022-09-07T08:50:56.168Z,22.50
2022-09-07T08:52:59.995Z,22.50
2022-09-07T08:55:04.764Z,22.40
2022-09-07T08:57:23.960Z,22.50
2022-09-07T08:59:40.891Z,22.70
2022-09-07T09:01:44.136Z,23.10
2022-09-07T09:04:19.352Z,23.40
2022-09-07T09:06:26.582Z,23.30
2022-09-07T09:08:40.354Z,23.30
2022-09-07T09:10:47.126Z,23.40
2022-09-07T09:12:55.375Z,23.40
2022-09-07T09:15:15.705Z,23.30
2022-09-07T09:17:20.208Z,23.50
2022-09-07T09:19:27.944Z,23.80
2022-09-07T09:21:29.605Z,23.90
2022-09-07T09:23:34.266Z,23.90
2022-09-07T09:25:36.949Z,23.80
2022-09-07T09:27:38.546Z,23.90
2022-09-07T09:29:40.300Z,24.30
2022-09-07T09:31:42.198Z,24.10
2022-09-07T09:33:44.053Z,24.50
2022-09-07T09:35:49.952Z,24.60
2022-09-07T09:37:51.650Z,24.70
2022-09-07T09:40:00.591Z,24.70
2022-09-07T09:42:15.227Z,24.70
2022-09-07T09:44:17.591Z,24.80
2022-09-07T09:46:19.464Z,25.00
2022-09-07T09:48:29.460Z,25.20
2022-09-07T09:53:00.670Z,25.30
2022-09-07T09:55:30.122Z,25.80
2022-09-07T09:57:43.089Z,25.80
2022-09-07T10:00:03.950Z,25.90
2022-09-07T10:04:48.972Z,26.10
2022-09-07T10:06:51.256Z,26.30
2022-09-07T10:09:02.552Z,26.30
2022-09-07T10:11:08.074Z,26.60
2022-09-07T10:13:19.787Z,26.80
2022-09-07T10:15:39.631Z,26.90
2022-09-07T10:17:42.935Z,26.80
2022-09-07T10:19:44.561Z,27.20
2022-09-07T10:21:46.575Z,27.70
2022-09-07T10:23:49.726Z,27.40
2022-09-07T10:25:51.350Z,27.30
2022-09-07T10:28:14.427Z,27.10
2022-09-07T10:30:16.490Z,26.90
2022-09-07T10:32:27.237Z,27.00
2022-09-07T10:34:41.076Z,27.10
2022-09-07T10:36:45.746Z,27.60
2022-09-07T10:38:52.246Z,27.70
2022-09-07T10:40:59.986Z,27.70
2022-09-07T10:43:22.282Z,27.80
2022-09-07T10:45:29.488Z,27.60
2022-09-07T10:47:43.486Z,27.80
2022-09-07T10:52:19.005Z,28.20
2022-09-07T10:54:30.770Z,28.70
2022-09-07T10:56:35.426Z,28.40
2022-09-07T11:01:02.225Z,29.50
2022-09-07T11:03:25.858Z,29.80
2022-09-07T11:05:38.309Z,29.70
2022-09-07T11:07:52.111Z,30.50
2022-09-07T11:09:57.678Z,30.30
2022-09-07T11:12:16.944Z,30.80
2022-09-07T11:14:20.203Z,30.50
2022-09-07T11:24:11.952Z,27.30
2022-09-07T11:26:15.914Z,27.30
2022-09-07T11:28:20.370Z,27.00
2022-09-07T11:30:24.051Z,27.00
2022-09-07T11:32:28.910Z,26.90
2022-09-07T11:34:52.209Z,26.70
2022-09-07T11:36:57.335Z,26.60
2022-09-07T11:39:12.856Z,26.50
2022-09-07T11:41:40.759Z,26.50
2022-09-07T11:43:52.970Z,27.10
2022-09-07T11:45:57.221Z,26.80
2022-09-07T11:48:19.544Z,26.50
2022-09-07T11:50:24.703Z,26.40
2022-09-07T11:52:34.054Z,28.00
2022-09-07T11:54:35.592Z,31.50
2022-09-07T11:56:38.568Z,32.90
2022-09-07T11:59:03.761Z,34.00
2022-09-07T12:01:34.919Z,34.50
2022-09-07T12:03:36.543Z,34.50
2022-09-07T12:05:47.424Z,34.50
2022-09-07T12:08:01.865Z,34.60
2022-09-07T12:10:06.539Z,33.60
2022-09-07T12:12:13.605Z,34.80
2022-09-07T12:14:34.168Z,33.40
2022-09-07T12:16:41.827Z,33.40
2022-09-07T12:18:43.387Z,33.10
2022-09-07T12:20:46.381Z,34.40
2022-09-07T12:23:00.887Z,34.80
2022-09-07T12:25:09.416Z,33.10
2022-09-07T12:27:19.789Z,32.10
2022-09-07T12:29:22.871Z,33.70
2022-09-07T12:31:57.181Z,35.00
2022-09-07T12:34:19.882Z,36.40
2022-09-07T12:36:27.307Z,35.40
2022-09-07T12:38:32.063Z,36.30
2022-09-07T12:40:33.726Z,35.20
2022-09-07T12:42:37.561Z,36.00
2022-09-07T12:44:39.334Z,37.60
2022-09-07T12:46:43.823Z,37.30
2022-09-07T12:49:08.415Z,37.60
2022-09-07T12:51:15.327Z,36.10
2022-09-07T12:53:37.213Z,34.00
2022-09-07T12:58:34.561Z,34.80
2022-09-07T13:00:36.131Z,33.60
2022-09-07T13:02:43.811Z,34.80
2022-09-07T13:04:46.222Z,34.60
2022-09-07T13:07:04.059Z,35.40
2022-09-07T13:09:08.710Z,34.60
2022-09-07T13:11:22.054Z,32.90
2022-09-07T13:16:12.018Z,34.50
2022-09-07T13:18:25.847Z,36.00
2022-09-07T13:20:34.859Z,33.20
2022-09-07T13:22:39.277Z,32.70
2022-09-07T13:24:50.428Z,32.50
2022-09-07T13:26:58.816Z,33.10
2022-09-07T13:29:04.276Z,33.30
2022-09-07T13:31:22.080Z,33.10
2022-09-07T13:33:23.799Z,32.80
2022-09-07T13:35:26.261Z,34.00
2022-09-07T13:37:28.884Z,34.10
2022-09-07T13:39:32.732Z,32.70
2022-09-07T13:41:37.013Z,31.70
2022-09-07T13:43:38.662Z,31.80
2022-09-07T13:45:45.802Z,31.10
2022-09-07T13:47:55.083Z,31.90
2022-09-07T13:50:16.055Z,34.30
2022-09-07T13:52:34.488Z,36.10
2022-09-07T13:54:42.066Z,36.10
2022-09-07T13:56:55.994Z,35.60
2022-09-07T13:58:57.698Z,34.50
2022-09-07T14:01:00.803Z,34.20
2022-09-07T14:03:06.458Z,35.20
2022-09-07T14:05:09.563Z,35.50
2022-09-07T14:07:19.827Z,36.10
2022-09-07T14:09:21.910Z,35.10
2022-09-07T14:11:25.297Z,35.20
2022-09-07T14:13:26.943Z,36.10
2022-09-07T14:15:32.337Z,36.10
2022-09-07T14:17:34.365Z,35.00
2022-09-07T14:19:41.721Z,35.60
2022-09-07T14:21:43.376Z,36.40
2022-09-07T14:23:49.417Z,36.20
2022-09-07T14:26:23.116Z,35.80
2022-09-07T14:28:36.844Z,35.30
2022-09-07T14:30:38.662Z,34.80
2022-09-07T14:32:41.381Z,34.30
2022-09-07T14:34:44.725Z,33.60
2022-09-07T14:36:46.883Z,33.40
2022-09-07T14:39:04.973Z,34.00
2022-09-07T14:41:09.990Z,31.40
2022-09-07T14:43:29.679Z,30.70
2022-09-07T14:45:32.741Z,30.50
2022-09-07T14:47:38.157Z,31.00
2022-09-07T14:49:39.743Z,31.00
2022-09-07T14:51:43.193Z,30.90
2022-09-07T14:53:51.827Z,31.10
2022-09-07T14:56:00.449Z,32.20
2022-09-07T14:58:14.034Z,33.10
2022-09-07T15:00:33.959Z,32.80
2022-09-07T15:02:36.838Z,31.60
2022-09-07T15:04:40.484Z,29.90
2022-09-07T15:07:02.205Z,30.20
2022-09-07T15:09:06.968Z,32.70
2022-09-07T15:13:34.543Z,32.10
2022-09-07T15:15:37.368Z,31.20
2022-09-07T15:17:42.960Z,30.50
2022-09-07T15:19:45.102Z,31.80
2022-09-07T15:21:46.794Z,33.10
2022-09-07T15:23:49.623Z,32.90
2022-09-07T15:25:53.684Z,34.30
2022-09-07T15:27:56.358Z,35.30
2022-09-07T15:29:57.901Z,35.30
2022-09-07T15:32:04.442Z,34.50
2022-09-07T15:34:10.021Z,33.10
2022-09-07T15:36:12.908Z,31.90
2022-09-07T15:41:20.837Z,31.20
2022-09-07T15:43:21.463Z,30.70
2022-09-07T15:45:24.699Z,29.90
2022-09-07T15:49:51.364Z,29.70
2022-09-07T15:52:08.655Z,29.80
2022-09-07T15:54:13.216Z,29.60
2022-09-07T15:56:16.400Z,28.90
2022-09-07T15:58:18.055Z,29.00
2022-09-07T16:00:19.992Z,29.30
2022-09-07T16:04:43.219Z,34.10
2022-09-07T16:06:47.882Z,34.80
2022-09-07T16:08:51.644Z,33.30
2022-09-07T16:10:54.037Z,31.30
2022-09-07T16:13:01.216Z,30.50
2022-09-07T16:15:05.174Z,30.80
2022-09-07T16:19:28.379Z,30.90
2022-09-07T16:21:30.154Z,31.80
2022-09-07T16:23:32.159Z,32.40
2022-09-07T16:25:34.544Z,31.20
2022-09-07T16:27:36.111Z,31.10
2022-09-07T16:29:37.901Z,32.00
2022-09-07T16:32:44.109Z,31.30
2022-09-07T16:34:03.222Z,29.50
2022-09-07T16:36:06.478Z,28.50
2022-09-07T16:40:29.716Z,29.10
2022-09-07T16:42:37.110Z,29.00
2022-09-07T16:44:39.516Z,28.70
2022-09-07T16:46:41.071Z,28.70
2022-09-07T16:48:43.977Z,28.70
2022-09-07T16:51:01.164Z,28.20
2022-09-07T16:53:04.399Z,27.80
2022-09-07T16:55:06.407Z,27.60
2022-09-07T16:57:08.010Z,27.60
2022-09-07T16:59:10.817Z,27.30
2022-09-07T17:01:13.754Z,27.20
2022-09-07T17:03:15.408Z,26.90
2022-09-07T17:05:17.049Z,26.80
2022-09-07T17:07:18.654Z,26.60
2022-09-07T17:09:20.598Z,26.50
2022-09-07T17:11:24.011Z,26.50
2022-09-07T17:13:25.707Z,26.40
2022-09-07T17:15:27.365Z,26.30
2022-09-07T17:17:28.953Z,26.20
2022-09-07T17:19:30.733Z,26.10
2022-09-07T17:21:33.518Z,26.10
2022-09-07T17:23:44.513Z,25.90
2022-09-07T17:25:49.572Z,25.80
2022-09-07T17:27:51.196Z,25.60
2022-09-07T17:29:53.805Z,25.60
2022-09-07T17:34:19.419Z,25.30
2022-09-07T17:36:22.456Z,25.20
2022-09-07T17:40:45.633Z,25.10
2022-09-07T17:45:08.897Z,25.00
2022-09-07T17:47:10.513Z,25.00
2022-09-07T17:49:14.199Z,25.00
2022-09-07T17:51:16.518Z,25.00
2022-09-07T17:53:18.152Z,24.90
2022-09-07T17:55:22.530Z,24.80
2022-09-07T17:57:24.149Z,24.70
2022-09-07T18:01:59.134Z,24.60
2022-09-07T18:04:00.734Z,24.50
2022-09-07T18:06:02.889Z,24.50
2022-09-07T18:08:04.694Z,24.40
2022-09-07T18:10:06.516Z,24.30
2022-09-07T18:12:08.161Z,24.10
2022-09-07T18:14:10.185Z,23.90
2022-09-07T18:16:13.380Z,23.70
2022-09-07T18:18:16.209Z,23.60
2022-09-07T18:20:19.009Z,23.50
2022-09-07T18:22:20.746Z,23.40
2022-09-07T18:24:23.448Z,23.30
2022-09-07T18:26:25.413Z,23.20
2022-09-07T18:30:48.643Z,23.10
2022-09-07T18:32:52.073Z,23.00
2022-09-07T18:34:53.800Z,23.00
2022-09-07T18:36:55.436Z,22.80
2022-09-07T18:39:00.843Z,22.50
2022-09-07T18:41:04.072Z,22.30
2022-09-07T18:43:12.227Z,22.10
2022-09-07T18:45:29.265Z,22.10
2022-09-07T18:47:39.897Z,22.20
2022-09-07T18:49:41.576Z,22.00
2022-09-07T18:54:12.526Z,21.90
2022-09-07T18:56:15.784Z,21.80
2022-09-07T18:58:17.556Z,21.70
2022-09-07T19:00:19.199Z,21.80
2022-09-07T19:02:20.813Z,21.80
2022-09-07T19:04:22.521Z,21.80
2022-09-07T19:06:24.904Z,21.80
2022-09-07T19:08:29.725Z,21.70
2022-09-07T19:10:35.855Z,21.80
2022-09-07T19:12:37.448Z,21.80
2022-09-07T19:14:39.022Z,21.80
2022-09-07T19:16:40.656Z,21.60
2022-09-07T19:18:45.586Z,21.60
2022-09-07T19:20:47.208Z,21.50
2022-09-07T19:22:48.942Z,21.40
2022-09-07T19:24:50.840Z,21.30
2022-09-07T19:26:55.684Z,21.30
2022-09-07T19:29:00.929Z,21.30
2022-09-07T19:31:08.596Z,21.30
2022-09-07T19:33:12.374Z,21.30
2022-09-07T19:35:13.944Z,21.40
2022-09-07T19:37:15.544Z,21.30
2022-09-07T19:39:17.179Z,21.20
2022-09-07T19:41:19.879Z,21.20
2022-09-07T19:43:21.502Z,21.20
2022-09-07T19:45:23.055Z,21.20
2022-09-07T19:47:24.799Z,21.20
2022-09-07T19:49:26.878Z,21.30
2022-09-07T19:51:28.637Z,21.30
2022-09-07T19:53:31.442Z,21.30
2022-09-07T19:55:33.120Z,21.20
2022-09-07T19:57:34.754Z,21.10
2022-09-07T19:59:36.307Z,21.00
2022-09-07T20:01:40.036Z,21.00
2022-09-07T20:03:41.994Z,20.80
2022-09-07T20:05:43.604Z,20.80
2022-09-07T20:07:47.804Z,20.80
2022-09-07T20:09:51.670Z,20.90
2022-09-07T20:11:53.609Z,20.80
2022-09-07T20:13:55.564Z,20.80
2022-09-07T20:15:58.004Z,20.80
2022-09-07T20:17:59.662Z,20.90
2022-09-07T20:20:01.360Z,21.00
2022-09-07T20:22:02.990Z,21.00
2022-09-07T20:24:04.648Z,21.00
2022-09-07T20:26:16.714Z,21.00
2022-09-07T20:28:18.289Z,21.00
2022-09-07T20:30:20.027Z,20.90
2022-09-07T20:32:21.650Z,21.00
2022-09-07T20:34:23.237Z,21.00
2022-09-07T20:36:24.895Z,20.90
2022-09-07T20:38:26.675Z,21.00
2022-09-07T20:40:28.316Z,21.00
2022-09-07T20:42:30.060Z,21.00
2022-09-07T20:44:31.777Z,21.00
2022-09-07T20:46:34.014Z,21.00
2022-09-07T20:48:37.178Z,21.00
2022-09-07T20:50:41.423Z,20.90
2022-09-07T20:52:46.058Z,20.90
2022-09-07T20:54:47.920Z,20.80
2022-09-07T20:56:49.514Z,20.60
2022-09-07T20:59:01.276Z,20.60
2022-09-07T21:01:03.604Z,20.50
2022-09-07T21:03:05.336Z,20.60
2022-09-07T21:05:07.779Z,20.50
2022-09-07T21:07:09.505Z,20.40
2022-09-07T21:09:11.172Z,20.50
2022-09-07T21:11:19.049Z,20.50
2022-09-07T21:13:20.672Z,20.50
2022-09-07T21:15:22.280Z,20.60
2022-09-07T21:17:23.969Z,20.50
2022-09-07T21:19:25.862Z,20.50
2022-09-07T21:21:28.239Z,20.40
2022-09-07T21:23:30.854Z,20.40
2022-09-07T21:25:32.482Z,20.40
2022-09-07T21:27:38.726Z,20.40
2022-09-07T21:29:40.738Z,20.40
2022-09-07T21:31:42.707Z,20.40
2022-09-07T21:33:46.770Z,20.30
2022-09-07T21:35:48.655Z,20.10
2022-09-07T21:37:50.380Z,20.20
2022-09-07T21:39:52.207Z,20.10
2022-09-07T21:41:53.975Z,20.10
2022-09-07T21:43:59.459Z,20.20
2022-09-07T21:46:13.393Z,20.20
2022-09-07T21:48:15.125Z,20.10
2022-09-07T21:50:16.749Z,20.20
2022-09-07T21:52:18.472Z,20.10
2022-09-07T21:54:20.079Z,20.20
2022-09-07T21:56:22.051Z,20.20
2022-09-07T21:58:24.011Z,20.20
2022-09-07T22:00:25.654Z,20.30
2022-09-07T22:02:27.355Z,20.30
2022-09-07T22:04:31.751Z,20.20
2022-09-07T22:06:34.079Z,20.20
2022-09-07T22:08:36.251Z,20.30
2022-09-07T22:10:37.919Z,20.30
2022-09-07T22:12:39.531Z,20.30
2022-09-07T22:14:42.794Z,20.20
2022-09-07T22:16:44.471Z,20.20
2022-09-07T22:18:46.082Z,20.10
2022-09-07T22:20:47.729Z,20.10
2022-09-07T22:22:49.352Z,20.10
2022-09-07T22:24:51.358Z,20.00
2022-09-07T22:26:52.972Z,20.00
2022-09-07T22:28:55.122Z,20.00
2022-09-07T22:30:57.114Z,20.10
2022-09-07T22:32:58.897Z,20.10
2022-09-07T22:35:00.546Z,20.10
2022-09-07T22:37:02.144Z,20.10
2022-09-07T22:39:05.103Z,20.10
2022-09-07T22:41:14.236Z,20.10
2022-09-07T22:43:16.007Z,20.10
2022-09-07T22:45:17.672Z,20.00
2022-09-07T22:47:19.331Z,20.00
2022-09-07T22:49:20.948Z,20.00
2022-09-07T22:51:24.844Z,19.90
2022-09-07T22:53:27.721Z,19.80
2022-09-07T22:55:29.404Z,19.90
2022-09-07T22:57:31.101Z,19.90
2022-09-07T22:59:32.851Z,19.80
2022-09-07T23:01:34.819Z,19.80
2022-09-07T23:03:36.685Z,19.80
2022-09-07T23:05:39.061Z,19.70
2022-09-07T23:07:43.901Z,19.70
2022-09-07T23:09:45.459Z,19.70
2022-09-07T23:11:47.786Z,19.60
2022-09-07T23:13:50.009Z,19.60
2022-09-07T23:15:51.768Z,19.70
2022-09-07T23:17:53.423Z,19.50
2022-09-07T23:19:55.056Z,19.50
2022-09-07T23:21:56.712Z,19.60
2022-09-07T23:23:59.705Z,19.60
2022-09-07T23:26:05.011Z,19.40
2022-09-07T23:28:07.346Z,19.40
2022-09-07T23:30:09.289Z,19.30
2022-09-07T23:32:10.884Z,19.30
2022-09-07T23:34:12.567Z,19.20
2022-09-07T23:36:14.293Z,19.20
2022-09-07T23:38:15.924Z,19.30
2022-09-07T23:40:17.537Z,19.20
2022-09-07T23:42:19.178Z,19.30
2022-09-07T23:44:20.941Z,19.40
2022-09-07T23:46:23.152Z,19.50
2022-09-07T23:48:25.302Z,19.40
2022-09-07T23:50:27.454Z,19.50
2022-09-07T23:52:29.646Z,19.40
2022-09-07T23:54:31.329Z,19.30
2022-09-07T23:56:33.016Z,19.40
2022-09-07T23:58:34.679Z,19.40
